createdAt,value
2023-02-16T00:00:26.020Z,22.10
2023-02-16T00:02:53.060Z,22.70
2023-02-16T00:05:25.029Z,21.57
2023-02-16T00:07:52.362Z,21.10
2023-02-16T00:10:19.572Z,20.80
2023-02-16T00:13:05.118Z,21.87
2023-02-16T00:15:32.264Z,22.60
2023-02-16T00:18:02.891Z,22.47
2023-02-16T00:20:32.491Z,22.37
2023-02-16T00:22:59.443Z,20.10
2023-02-16T00:25:26.378Z,22.13
2023-02-16T00:27:53.436Z,22.57
2023-02-16T00:30:22.853Z,22.27
2023-02-16T00:32:50.231Z,23.60
2023-02-16T00:35:19.108Z,22.40
2023-02-16T00:37:47.338Z,23.10
2023-02-16T00:40:16.560Z,22.80
2023-02-16T00:42:45.591Z,23.20
2023-02-16T00:45:20.104Z,24.63
2023-02-16T00:47:50.305Z,23.43
2023-02-16T00:50:29.465Z,20.90
2023-02-16T00:52:59.705Z,25.17
2023-02-16T00:55:32.661Z,22.03
2023-02-16T00:58:07.375Z,22.77
2023-02-16T01:00:42.232Z,23.37
2023-02-16T01:03:21.125Z,22.70
2023-02-16T01:05:48.035Z,22.73
2023-02-16T01:08:35.998Z,23.30
2023-02-16T01:11:08.180Z,24.30
2023-02-16T01:13:49.283Z,25.27
2023-02-16T01:16:20.691Z,22.07
2023-02-16T01:18:48.672Z,24.67
2023-02-16T01:21:16.095Z,22.87
2023-02-16T01:23:43.156Z,24.23
2023-02-16T01:26:16.475Z,25.70
2023-02-16T01:28:44.372Z,22.57
2023-02-16T01:31:12.834Z,23.50
2023-02-16T01:33:40.443Z,23.27
2023-02-16T01:36:28.133Z,23.73
2023-02-16T01:38:55.094Z,25.20
2023-02-16T01:41:44.997Z,25.07
2023-02-16T01:44:28.401Z,26.33
2023-02-16T01:47:45.761Z,23.80
2023-02-16T01:50:24.721Z,25.33
2023-02-16T01:53:21.425Z,26.07
2023-02-16T01:55:53.599Z,26.30
2023-02-16T01:58:34.666Z,24.37
2023-02-16T02:01:01.743Z,24.00
2023-02-16T02:03:52.542Z,23.83
2023-02-16T02:06:28.019Z,23.70
2023-02-16T02:09:06.101Z,24.23
2023-02-16T02:11:55.597Z,25.90
2023-02-16T02:14:33.261Z,23.63
2023-02-16T02:17:04.195Z,27.70
2023-02-16T02:19:38.843Z,24.87
2023-02-16T02:23:07.059Z,23.80
2023-02-16T02:26:04.312Z,24.07
2023-02-16T02:28:47.652Z,22.30
2023-02-16T02:31:57.759Z,23.17
2023-02-16T02:34:52.508Z,24.57
2023-02-16T02:37:47.074Z,23.83
2023-02-16T02:40:55.932Z,24.83
2023-02-16T02:43:36.585Z,23.57
2023-02-16T02:46:19.570Z,25.40
2023-02-16T02:48:46.601Z,23.73
2023-02-16T02:51:30.387Z,23.87
2023-02-16T02:54:43.986Z,24.43
2023-02-16T02:57:43.576Z,23.67
2023-02-16T03:00:42.529Z,23.80
2023-02-16T03:03:41.731Z,22.93
2023-02-16T03:06:40.860Z,24.40
2023-02-16T03:09:14.240Z,23.13
2023-02-16T03:12:00.761Z,22.70
2023-02-16T03:14:43.473Z,23.17
2023-02-16T03:17:35.514Z,26.40
2023-02-16T03:20:25.528Z,25.07
2023-02-16T03:23:10.824Z,22.93
2023-02-16T03:25:58.128Z,25.57
2023-02-16T03:28:50.559Z,26.37
2023-02-16T03:31:24.421Z,27.57
2023-02-16T03:33:55.020Z,27.40
2023-02-16T03:36:29.001Z,25.33
2023-02-16T03:38:56.877Z,25.33
2023-02-16T03:41:25.890Z,27.00
2023-02-16T03:43:52.815Z,28.23
2023-02-16T03:46:19.790Z,27.57
2023-02-16T03:48:46.882Z,26.10
2023-02-16T03:51:13.936Z,27.77
2023-02-16T03:53:40.925Z,28.13
2023-02-16T03:56:07.988Z,25.97
2023-02-16T03:58:35.035Z,26.90
2023-02-16T04:01:02.456Z,27.60
2023-02-16T04:03:29.699Z,28.43
2023-02-16T04:05:56.633Z,27.00
2023-02-16T04:08:23.707Z,27.57
2023-02-16T04:10:50.908Z,27.20
2023-02-16T04:13:20.142Z,26.27
2023-02-16T04:15:47.055Z,26.10
2023-02-16T04:18:13.932Z,26.70
2023-02-16T04:20:41.369Z,26.40
2023-02-16T04:23:08.738Z,26.87
2023-02-16T04:25:35.979Z,28.87
2023-02-16T04:28:02.877Z,27.50
2023-02-16T04:30:32.420Z,27.47
2023-02-16T04:33:00.740Z,27.97
2023-02-16T04:35:27.868Z,26.63
2023-02-16T04:37:54.815Z,23.40
2023-02-16T04:40:22.070Z,25.13
2023-02-16T04:42:51.115Z,24.40
2023-02-16T04:45:18.091Z,26.60
2023-02-16T04:47:44.983Z,24.67
2023-02-16T04:50:12.340Z,25.57
2023-02-16T04:52:39.392Z,24.50
2023-02-16T04:55:09.798Z,23.43
2023-02-16T04:57:38.320Z,23.60
2023-02-16T05:00:08.793Z,22.60
2023-02-16T05:02:35.700Z,24.90
2023-02-16T05:05:02.867Z,21.73
2023-02-16T05:07:29.737Z,22.50
2023-02-16T05:09:56.653Z,25.03
2023-02-16T05:12:42.324Z,25.20
2023-02-16T05:15:09.425Z,26.33
2023-02-16T05:17:36.354Z,25.67
2023-02-16T05:20:03.975Z,24.53
2023-02-16T05:22:34.633Z,25.80
2023-02-16T05:25:02.096Z,24.53
2023-02-16T05:27:30.497Z,25.90
2023-02-16T05:29:59.264Z,25.10
2023-02-16T05:32:26.670Z,25.00
2023-02-16T05:34:53.602Z,25.10
2023-02-16T05:37:20.638Z,26.03
2023-02-16T05:39:47.600Z,24.67
2023-02-16T05:42:14.487Z,25.00
2023-02-16T05:44:41.491Z,27.27
2023-02-16T05:47:08.548Z,25.67
2023-02-16T05:49:35.864Z,25.20
2023-02-16T05:52:02.886Z,23.73
2023-02-16T05:54:29.996Z,24.87
2023-02-16T05:56:56.966Z,26.17
2023-02-16T05:59:24.049Z,27.43
2023-02-16T06:01:52.415Z,27.10
2023-02-16T06:04:20.477Z,27.47
2023-02-16T06:06:47.500Z,26.90
2023-02-16T06:09:14.484Z,26.10
2023-02-16T06:11:41.440Z,26.77
2023-02-16T06:14:14.754Z,25.57
2023-02-16T06:16:45.001Z,28.30
2023-02-16T06:19:12.744Z,26.37
2023-02-16T06:21:40.589Z,26.50
2023-02-16T06:24:08.779Z,24.47
2023-02-16T06:26:36.362Z,25.80
2023-02-16T06:29:05.977Z,25.97
2023-02-16T06:31:36.223Z,24.90
2023-02-16T06:34:06.542Z,23.77
2023-02-16T06:36:34.267Z,24.80
2023-02-16T06:39:03.695Z,26.23
2023-02-16T06:41:31.970Z,24.90
2023-02-16T06:44:05.484Z,25.37
2023-02-16T06:46:32.932Z,23.27
2023-02-16T06:49:00.553Z,24.20
2023-02-16T06:51:27.783Z,24.60
2023-02-16T06:53:54.783Z,23.97
2023-02-16T06:56:22.170Z,25.30
2023-02-16T06:58:51.481Z,25.20
2023-02-16T07:01:23.213Z,23.90
2023-02-16T07:03:57.377Z,22.67
2023-02-16T07:06:58.597Z,23.77
2023-02-16T07:09:27.100Z,22.20
2023-02-16T07:11:54.514Z,22.13
2023-02-16T07:14:21.984Z,22.20
2023-02-16T07:16:48.945Z,21.70
2023-02-16T07:19:16.097Z,23.67
2023-02-16T07:21:44.108Z,21.83
2023-02-16T07:24:14.116Z,22.43
2023-02-16T07:26:44.027Z,22.97
2023-02-16T07:29:12.871Z,22.77
2023-02-16T07:31:42.199Z,26.93
2023-02-16T07:34:15.955Z,24.90
2023-02-16T07:36:44.540Z,22.53
2023-02-16T07:39:15.032Z,22.37
2023-02-16T07:41:42.062Z,20.90
2023-02-16T07:44:09.716Z,22.90
2023-02-16T07:46:36.638Z,21.87
2023-02-16T07:49:03.857Z,22.03
2023-02-16T07:51:31.850Z,23.20
2023-02-16T07:54:00.504Z,24.60
2023-02-16T07:56:30.796Z,22.43
2023-02-16T07:58:59.651Z,23.67
2023-02-16T08:01:30.819Z,25.17
2023-02-16T08:04:04.680Z,24.87
2023-02-16T08:06:31.758Z,24.40
2023-02-16T08:08:59.368Z,23.03
2023-02-16T08:11:26.593Z,23.37
2023-02-16T08:13:56.782Z,22.93
2023-02-16T08:16:27.080Z,22.10
2023-02-16T08:18:56.635Z,22.60
2023-02-16T08:21:27.993Z,22.83
2023-02-16T08:24:07.108Z,21.87
2023-02-16T08:26:40.701Z,23.10
2023-02-16T08:29:18.543Z,22.33
2023-02-16T08:31:46.858Z,22.70
2023-02-16T08:34:15.848Z,22.80
2023-02-16T08:36:47.607Z,21.63
2023-02-16T08:39:20.078Z,21.60
2023-02-16T08:41:49.362Z,21.30
2023-02-16T08:44:17.790Z,21.13
2023-02-16T08:46:47.720Z,20.80
2023-02-16T08:49:17.496Z,20.90
2023-02-16T08:51:48.297Z,22.10
2023-02-16T08:54:21.719Z,20.10
2023-02-16T08:56:49.773Z,20.37
2023-02-16T08:59:18.897Z,20.20
2023-02-16T09:01:46.261Z,20.57
2023-02-16T09:04:16.517Z,21.30
2023-02-16T09:06:45.273Z,20.63
2023-02-16T09:09:13.360Z,19.97
2023-02-16T09:11:41.885Z,21.73
2023-02-16T09:14:09.520Z,20.67
2023-02-16T09:16:39.694Z,20.47
2023-02-16T09:19:07.276Z,19.13
2023-02-16T09:21:37.363Z,20.73
2023-02-16T09:24:06.211Z,19.47
2023-02-16T09:26:37.667Z,18.33
2023-02-16T09:29:05.437Z,17.97
2023-02-16T09:31:37.885Z,20.37
2023-02-16T09:34:16.475Z,19.37
2023-02-16T09:36:43.937Z,19.20
2023-02-16T09:39:11.287Z,19.70
2023-02-16T09:42:02.888Z,18.80
2023-02-16T09:44:55.949Z,19.67
2023-02-16T09:47:29.480Z,19.27
2023-02-16T09:49:58.644Z,19.27
2023-02-16T09:52:41.045Z,21.47
2023-02-16T09:55:20.912Z,18.97
2023-02-16T09:58:03.304Z,18.63
2023-02-16T10:00:48.284Z,20.17
2023-02-16T10:03:41.507Z,19.63
2023-02-16T10:06:40.516Z,18.17
2023-02-16T10:09:17.917Z,17.93
2023-02-16T10:11:57.713Z,17.20
2023-02-16T10:14:45.840Z,17.70
2023-02-16T10:18:02.372Z,16.83
2023-02-16T10:20:34.549Z,16.97
2023-02-16T10:23:48.491Z,20.97
2023-02-16T10:26:42.032Z,17.53
2023-02-16T10:29:19.619Z,18.43
2023-02-16T10:32:21.153Z,19.63
2023-02-16T10:34:55.272Z,17.33
2023-02-16T10:37:55.344Z,17.87
2023-02-16T10:41:04.568Z,17.60
2023-02-16T10:44:15.425Z,17.13
2023-02-16T10:46:49.173Z,17.50
2023-02-16T10:49:17.567Z,17.67
2023-02-16T10:51:50.561Z,17.77
2023-02-16T10:54:22.472Z,17.20
2023-02-16T10:57:05.955Z,16.60
2023-02-16T10:59:41.443Z,18.10
2023-02-16T11:02:42.225Z,18.03
2023-02-16T11:05:38.244Z,18.40
2023-02-16T11:08:08.325Z,19.10
2023-02-16T11:10:53.803Z,19.00
2023-02-16T11:13:50.107Z,18.43
2023-02-16T11:16:26.844Z,17.10
2023-02-16T11:19:17.929Z,17.30
2023-02-16T11:22:02.700Z,17.07
2023-02-16T11:24:34.490Z,16.73
2023-02-16T11:27:19.055Z,15.30
2023-02-16T11:29:46.226Z,17.33
2023-02-16T11:32:18.544Z,17.27
2023-02-16T11:34:51.980Z,17.33
2023-02-16T11:37:28.349Z,16.27
2023-02-16T11:40:05.508Z,18.90
2023-02-16T11:42:40.550Z,16.00
2023-02-16T11:45:21.059Z,18.80
2023-02-16T11:47:57.641Z,16.30
2023-02-16T11:50:38.613Z,18.10
2023-02-16T11:53:23.204Z,16.50
2023-02-16T11:55:51.468Z,16.93
2023-02-16T11:58:27.976Z,16.97
2023-02-16T12:01:29.172Z,17.90
2023-02-16T12:04:37.341Z,16.90
2023-02-16T12:07:57.632Z,17.73
2023-02-16T12:10:35.906Z,16.83
2023-02-16T12:13:41.663Z,18.00
2023-02-16T12:16:37.204Z,18.23
2023-02-16T12:19:36.580Z,16.83
2023-02-16T12:22:55.513Z,19.20
2023-02-16T12:25:47.259Z,18.57
2023-02-16T12:28:57.564Z,19.00
2023-02-16T12:31:48.596Z,18.70
2023-02-16T12:34:48.663Z,19.40
2023-02-16T12:37:36.392Z,19.10
2023-02-16T12:40:59.912Z,20.53
2023-02-16T12:43:42.339Z,21.67
2023-02-16T12:46:20.306Z,19.37
2023-02-16T12:49:07.407Z,20.40
2023-02-16T12:51:42.266Z,19.73
2023-02-16T12:54:22.165Z,20.27
2023-02-16T12:56:57.637Z,21.37
2023-02-16T12:59:48.585Z,21.57
2023-02-16T13:02:40.614Z,21.80
2023-02-16T13:05:22.419Z,21.30
2023-02-16T13:08:18.623Z,23.00
2023-02-16T13:11:20.031Z,20.63
2023-02-16T13:13:51.346Z,20.90
2023-02-16T13:17:02.467Z,21.83
2023-02-16T13:19:29.658Z,24.00
2023-02-16T13:22:27.934Z,23.63
2023-02-16T13:25:46.187Z,22.43
2023-02-16T13:29:23.273Z,23.67
2023-02-16T13:32:35.859Z,27.30
2023-02-16T13:35:58.124Z,24.90
2023-02-16T13:44:59.224Z,23.30
2023-02-16T13:47:31.182Z,23.60
2023-02-16T13:50:03.858Z,22.00
2023-02-16T13:52:41.275Z,21.77
2023-02-16T13:55:29.184Z,23.50
2023-02-16T13:58:41.178Z,21.63
2023-02-16T14:01:39.174Z,22.13
2023-02-16T14:07:38.108Z,21.63
2023-02-16T14:10:05.712Z,23.30
2023-02-16T14:12:39.194Z,25.23
2023-02-16T14:15:18.463Z,22.90
2023-02-16T14:17:46.069Z,23.83
2023-02-16T14:20:31.177Z,22.53
2023-02-16T14:23:03.598Z,23.57
2023-02-16T14:25:37.324Z,22.80
2023-02-16T14:28:57.505Z,21.67
2023-02-16T14:31:26.424Z,23.23
2023-02-16T14:34:05.751Z,24.30
2023-02-16T14:36:34.465Z,22.80
2023-02-16T14:39:02.036Z,24.23
2023-02-16T14:41:32.881Z,22.30
2023-02-16T14:44:05.255Z,27.40
2023-02-16T14:47:07.046Z,23.97
2023-02-16T14:50:09.409Z,24.60
2023-02-16T14:53:08.710Z,23.77
2023-02-16T14:55:56.664Z,23.50
2023-02-16T14:58:46.795Z,21.80
2023-02-16T15:01:19.538Z,23.37
2023-02-16T15:03:52.261Z,23.70
2023-02-16T15:06:40.267Z,23.17
2023-02-16T15:09:17.153Z,23.67
2023-02-16T15:12:17.109Z,25.60
2023-02-16T15:14:56.728Z,25.70
2023-02-16T15:17:55.978Z,24.83
2023-02-16T15:20:34.901Z,23.63
2023-02-16T15:23:06.321Z,26.87
2023-02-16T15:25:38.878Z,24.13
2023-02-16T15:28:33.970Z,26.87
2023-02-16T15:31:05.937Z,26.80
2023-02-16T15:33:41.967Z,24.50
2023-02-16T15:36:14.402Z,25.93
2023-02-16T15:38:44.216Z,25.20
2023-02-16T15:41:24.702Z,25.83
2023-02-16T15:43:52.289Z,26.23
2023-02-16T15:46:37.116Z,26.93
2023-02-16T15:49:33.003Z,26.00
2023-02-16T15:52:01.259Z,25.63
2023-02-16T15:54:35.316Z,25.67
2023-02-16T15:57:07.120Z,26.00
2023-02-16T16:00:03.086Z,27.70
2023-02-16T16:02:35.212Z,24.80
2023-02-16T16:05:06.154Z,26.40
2023-02-16T16:07:36.704Z,26.90
2023-02-16T16:10:17.203Z,26.20
2023-02-16T16:12:45.447Z,27.70
2023-02-16T16:15:22.961Z,27.50
2023-02-16T16:17:52.154Z,27.37
2023-02-16T16:20:38.209Z,27.53
2023-02-16T16:23:27.173Z,28.10
2023-02-16T16:25:54.897Z,26.63
2023-02-16T16:28:38.149Z,29.03
2023-02-16T16:31:17.819Z,28.40
2023-02-16T16:33:58.615Z,27.37
2023-02-16T16:36:56.119Z,27.77
2023-02-16T16:39:29.206Z,28.13
2023-02-16T16:42:19.190Z,26.57
2023-02-16T16:45:26.401Z,25.10
2023-02-16T16:47:53.729Z,25.60
2023-02-16T16:50:48.099Z,25.47
2023-02-16T16:53:40.450Z,24.33
2023-02-16T16:56:15.117Z,24.40
2023-02-16T16:58:44.841Z,25.13
2023-02-16T17:01:13.598Z,25.93
2023-02-16T17:03:40.744Z,23.80
2023-02-16T17:06:09.266Z,25.80
2023-02-16T17:08:38.029Z,23.37
2023-02-16T17:11:05.360Z,23.13
2023-02-16T17:13:32.425Z,21.30
2023-02-16T17:16:12.883Z,24.73
2023-02-16T17:18:40.239Z,27.60
2023-02-16T17:21:07.240Z,23.30
2023-02-16T17:23:34.424Z,22.53
2023-02-16T17:26:01.393Z,23.67
2023-02-16T17:28:29.410Z,21.90
2023-02-16T17:31:02.963Z,20.53
2023-02-16T17:33:30.652Z,20.20
2023-02-16T17:35:57.824Z,19.90
2023-02-16T17:38:25.294Z,19.80
2023-02-16T17:40:54.235Z,19.40
2023-02-16T17:43:21.974Z,19.83
2023-02-16T17:45:49.867Z,19.17
2023-02-16T17:48:23.726Z,17.40
2023-02-16T17:50:51.394Z,17.10
2023-02-16T17:53:23.844Z,18.00
2023-02-16T17:55:53.233Z,17.20
2023-02-16T17:58:20.930Z,17.80
2023-02-16T18:00:48.510Z,17.93
2023-02-16T18:03:15.518Z,17.60
2023-02-16T18:05:44.117Z,16.53
2023-02-16T18:08:12.629Z,16.50
2023-02-16T18:10:44.854Z,17.67
2023-02-16T18:13:14.424Z,16.80
2023-02-16T18:15:45.328Z,17.33
2023-02-16T18:18:14.444Z,17.20
2023-02-16T18:20:41.799Z,17.97
2023-02-16T18:23:09.291Z,15.77
2023-02-16T18:25:37.497Z,16.37
2023-02-16T18:28:04.603Z,16.47
2023-02-16T18:30:31.966Z,16.03
2023-02-16T18:32:58.939Z,15.30
2023-02-16T18:35:25.870Z,17.00
2023-02-16T18:37:53.043Z,14.40
2023-02-16T18:40:21.831Z,13.30
2023-02-16T18:42:48.752Z,13.13
2023-02-16T18:45:15.732Z,13.77
2023-02-16T18:47:45.523Z,14.80
2023-02-16T18:50:12.636Z,14.50
2023-02-16T18:52:42.573Z,13.60
2023-02-16T18:55:10.419Z,13.60
2023-02-16T18:57:37.587Z,12.57
2023-02-16T19:00:11.390Z,14.27
2023-02-16T19:02:39.233Z,13.87
2023-02-16T19:05:07.119Z,14.20
2023-02-16T19:07:34.231Z,13.30
2023-02-16T19:10:01.170Z,11.40
2023-02-16T19:12:28.090Z,11.63
2023-02-16T19:14:57.473Z,11.80
2023-02-16T19:17:24.492Z,10.50
2023-02-16T19:19:51.368Z,12.30
2023-02-16T19:22:18.586Z,11.47
2023-02-16T19:24:45.635Z,12.60
2023-02-16T19:27:12.788Z,11.97
2023-02-16T19:29:40.115Z,12.70
2023-02-16T19:32:07.469Z,12.03
2023-02-16T19:34:34.725Z,11.33
2023-02-16T19:37:04.380Z,11.83
2023-02-16T19:39:31.620Z,10.83
2023-02-16T19:42:00.732Z,11.77
2023-02-16T19:44:27.756Z,11.43
2023-02-16T19:46:54.647Z,11.33
2023-02-16T19:49:21.606Z,11.17
2023-02-16T19:51:48.731Z,12.13
2023-02-16T19:54:18.353Z,11.03
2023-02-16T19:56:45.260Z,13.13
2023-02-16T19:59:12.202Z,12.27
2023-02-16T20:01:39.285Z,12.70
2023-02-16T20:04:06.294Z,13.00
2023-02-16T20:06:37.409Z,12.27
2023-02-16T20:09:04.701Z,13.50
2023-02-16T20:11:32.101Z,13.00
2023-02-16T20:14:00.070Z,12.53
2023-02-16T20:16:28.813Z,13.53
2023-02-16T20:18:55.795Z,13.30
2023-02-16T20:21:27.332Z,14.40
2023-02-16T20:23:57.654Z,13.97
2023-02-16T20:26:41.077Z,13.67
2023-02-16T20:29:09.835Z,13.87
2023-02-16T20:31:42.960Z,14.67
2023-02-16T20:34:10.534Z,14.43
2023-02-16T20:36:38.241Z,14.30
2023-02-16T20:39:07.709Z,14.40
2023-02-16T20:41:36.364Z,15.53
2023-02-16T20:44:04.275Z,16.10
2023-02-16T20:46:34.151Z,19.90
2023-02-16T20:49:01.311Z,17.17
2023-02-16T20:51:28.529Z,17.97
2023-02-16T20:53:55.440Z,16.60
2023-02-16T20:56:25.924Z,17.53
2023-02-16T20:58:55.024Z,16.20
2023-02-16T21:01:31.570Z,17.10
2023-02-16T21:03:59.953Z,16.97
2023-02-16T21:06:28.455Z,18.03
2023-02-16T21:08:56.121Z,18.03
2023-02-16T21:11:23.569Z,18.93
2023-02-16T21:13:50.479Z,17.83
2023-02-16T21:16:17.903Z,20.27
2023-02-16T21:18:45.037Z,18.60
2023-02-16T21:21:15.716Z,17.93
2023-02-16T21:23:49.398Z,18.23
2023-02-16T21:26:18.229Z,16.17
2023-02-16T21:28:45.671Z,17.00
2023-02-16T21:31:18.157Z,18.60
2023-02-16T21:33:45.461Z,18.67
2023-02-16T21:36:15.677Z,16.67
2023-02-16T21:38:44.457Z,19.03
2023-02-16T21:41:26.496Z,19.63
2023-02-16T21:44:04.268Z,18.77
2023-02-16T21:46:36.394Z,19.00
2023-02-16T21:49:04.847Z,18.50
2023-02-16T21:51:36.038Z,20.20
2023-02-16T21:54:05.896Z,20.93
2023-02-16T21:56:44.693Z,21.00
2023-02-16T21:59:14.471Z,20.67
2023-02-16T22:01:44.176Z,24.07
2023-02-16T22:04:14.045Z,21.93
2023-02-16T22:06:45.646Z,24.00
2023-02-16T22:09:15.218Z,20.80
2023-02-16T22:11:42.143Z,23.27
2023-02-16T22:14:09.448Z,22.17
2023-02-16T22:16:38.505Z,23.47
2023-02-16T22:19:08.745Z,24.00
2023-02-16T22:21:37.714Z,23.90
2023-02-16T22:24:05.620Z,23.50
2023-02-16T22:26:34.365Z,22.17
2023-02-16T22:29:08.298Z,23.60
2023-02-16T22:31:36.284Z,22.83
2023-02-16T22:34:11.653Z,22.70
2023-02-16T22:36:38.591Z,24.03
2023-02-16T22:39:05.890Z,23.30
2023-02-16T22:41:33.006Z,21.97
2023-02-16T22:44:00.183Z,22.13
2023-02-16T22:46:28.829Z,22.43
2023-02-16T22:48:58.489Z,21.20
2023-02-16T22:51:29.065Z,20.17
2023-02-16T22:53:59.954Z,19.53
2023-02-16T22:56:27.705Z,20.57
2023-02-16T22:58:57.542Z,20.30
2023-02-16T23:01:25.865Z,19.70
2023-02-16T23:03:56.882Z,20.67
2023-02-16T23:06:26.453Z,21.53
2023-02-16T23:08:57.022Z,20.10
2023-02-16T23:11:24.908Z,19.60
2023-02-16T23:13:52.228Z,19.60
2023-02-16T23:16:22.756Z,19.67
2023-02-16T23:18:50.173Z,22.63
2023-02-16T23:21:24.842Z,20.23
2023-02-16T23:23:52.784Z,20.83
2023-02-16T23:26:22.180Z,21.13
2023-02-16T23:28:54.059Z,20.23
2023-02-16T23:31:22.107Z,21.40
2023-02-16T23:33:49.891Z,21.20
2023-02-16T23:36:16.921Z,22.03
2023-02-16T23:38:44.013Z,21.90
2023-02-16T23:41:15.136Z,21.30
2023-02-16T23:43:42.841Z,24.00
2023-02-16T23:46:10.385Z,22.57
2023-02-16T23:48:38.229Z,24.60
2023-02-16T23:51:05.497Z,23.90
2023-02-16T23:53:32.478Z,22.90
2023-02-16T23:56:24.239Z,24.40
2023-02-16T23:58:51.369Z,23.07
